Time;durP1;ratioP1;P1;durP2;ratioP2;P2;SDS_P1;SDS_P2;PMS_P1;PMS_P2;Temp;Humidity;BMP_temperature;BMP_pressure;BME280_temperature;BME280_humidity;BME280_pressure;Samples;Min_cycle;Max_cycle;Signal;HPM_P1;HPM_P2
2022/03/26 00:01:41;;;;;;;51.08;23.35;;;;;;;5.27;64.51;98364.94;4978524;28;20531;-89
2022/03/26 00:04:07;;;;;;;55.00;25.83;;;;;;;5.31;64.71;98374.53;4979503;28;20030;-87
2022/03/26 00:06:33;;;;;;;56.80;24.77;;;;;;;5.30;64.30;98395.78;4995025;28;20100;-89
2022/03/26 00:09:13;;;;;;;59.15;25.60;;;;;;;5.02;64.70;98350.59;4994148;28;20038;-86
2022/03/26 00:11:38;;;;;;;59.45;26.15;;;;;;;4.97;64.76;98348.97;4994319;28;20042;-89
2022/03/26 00:14:04;;;;;;;59.42;22.48;;;;;;;4.98;65.82;98379.91;4978991;28;20048;-87
2022/03/26 00:16:30;;;;;;;37.35;18.50;;;;;;;4.81;66.47;98375.03;4991682;28;20037;-87
2022/03/26 00:18:55;;;;;;;40.47;17.23;;;;;;;4.82;66.78;98375.00;4995505;28;20042;-87
2022/03/26 00:21:21;;;;;;;50.08;19.27;;;;;;;4.60;66.82;98347.31;4979263;28;20354;-87
2022/03/26 00:23:46;;;;;;;36.45;17.23;;;;;;;4.50;67.67;98364.31;4992066;28;20037;-87
2022/03/26 00:26:15;;;;;;;49.05;18.70;;;;;;;4.34;68.79;98381.50;4979295;28;20038;-86
2022/03/26 00:28:41;;;;;;;38.35;16.98;;;;;;;4.38;69.62;98389.34;4986857;28;20522;-89
2022/03/26 00:31:07;;;;;;;47.25;18.10;;;;;;;4.23;70.96;98375.59;4982365;28;20069;-89
2022/03/26 00:33:33;;;;;;;37.85;17.58;;;;;;;4.26;70.76;98375.53;4988089;28;20494;-89
2022/03/26 00:35:59;;;;;;;37.15;18.25;;;;;;;4.34;70.53;98381.50;4970061;28;20064;-88
2022/03/26 00:38:25;;;;;;;42.20;18.10;;;;;;;4.23;70.64;98378.25;4981790;28;20037;-88
2022/03/26 00:40:50;;;;;;;43.08;16.08;;;;;;;4.21;71.81;98375.66;4982085;28;20026;-88
2022/03/26 00:43:16;;;;;;;36.42;16.30;;;;;;;4.17;70.61;98357.19;4985579;28;20042;-88
2022/03/26 00:45:45;;;;;;;40.47;18.02;;;;;;;4.30;70.94;98385.16;4980806;28;22324;-89
2022/03/26 00:48:11;;;;;;;40.67;18.90;;;;;;;4.27;70.95;98369.31;4985083;28;20422;-88
2022/03/26 00:50:37;;;;;;;36.95;18.08;;;;;;;4.16;70.99;98371.34;4981668;28;20041;-88
2022/03/26 00:53:02;;;;;;;58.28;23.13;;;;;;;4.25;71.45;98387.00;4981602;28;20490;-88
2022/03/26 00:55:29;;;;;;;45.30;20.17;;;;;;;4.21;71.07;98386.22;4988376;28;20104;-89
2022/03/26 00:57:54;;;;;;;52.63;20.58;;;;;;;4.11;71.35;98382.06;4981408;28;20033;-87
2022/03/26 01:00:20;;;;;;;59.70;20.52;;;;;;;4.15;71.31;98396.09;4981195;28;20099;-88
2022/03/26 01:02:46;;;;;;;36.10;15.88;;;;;;;4.09;69.99;98393.59;4997433;28;20038;-88
2022/03/26 01:05:11;;;;;;;39.42;15.88;;;;;;;3.92;70.07;98401.00;4986881;28;20423;-87
2022/03/26 01:07:37;;;;;;;40.58;16.33;;;;;;;3.75;70.63;98381.06;4981369;28;20038;-89
2022/03/26 01:10:04;;;;;;;38.20;15.95;;;;;;;3.84;71.16;98407.34;4981584;28;20049;-89
2022/03/26 01:12:30;;;;;;;44.40;16.58;;;;;;;3.75;71.12;98396.09;4979300;28;20044;-87
2022/03/26 01:14:56;;;;;;;59.78;17.17;;;;;;;3.64;71.46;98392.78;4980255;28;20042;-89
2022/03/26 01:17:22;;;;;;;43.40;18.42;;;;;;;3.55;72.72;98415.03;4989949;28;20037;-89
2022/03/26 01:19:48;;;;;;;54.22;20.50;;;;;;;3.43;73.25;98415.25;4980683;28;20042;-88
2022/03/26 01:22:14;;;;;;;40.13;18.52;;;;;;;3.27;74.21;98419.09;4997387;28;20037;-88
2022/03/26 01:24:40;;;;;;;50.42;19.65;;;;;;;3.23;74.92;98407.72;4981494;28;20038;-88
2022/03/26 01:27:09;;;;;;;41.47;18.23;;;;;;;3.30;75.45;98408.47;4997051;28;20041;-89
2022/03/26 01:29:38;;;;;;;46.75;18.85;;;;;;;3.32;75.46;98417.25;4981362;28;20057;-88
2022/03/26 01:32:06;;;;;;;48.88;16.75;;;;;;;3.27;75.73;98416.47;4997501;28;20029;-89
2022/03/26 01:34:32;;;;;;;41.15;17.30;;;;;;;3.19;76.24;98421.03;4994424;28;20034;-89
2022/03/26 01:36:57;;;;;;;46.67;18.80;;;;;;;3.14;76.33;98417.59;4996890;28;20038;-88
2022/03/26 01:39:23;;;;;;;56.75;19.00;;;;;;;3.08;76.93;98420.34;4975576;28;20099;-88
2022/03/26 01:41:49;;;;;;;39.20;15.80;;;;;;;2.98;76.81;98429.34;4981570;28;20187;-88
2022/03/26 01:44:15;;;;;;;33.40;14.93;;;;;;;2.94;75.55;98409.16;4989067;28;20045;-88
2022/03/26 01:46:47;;;;;;;34.92;13.80;;;;;;;2.92;75.35;98413.59;4981084;28;20041;-88
2022/03/26 01:49:12;;;;;;;34.97;13.27;;;;;;;2.93;75.50;98420.63;4968619;28;20518;-88
2022/03/26 01:51:38;;;;;;;37.35;14.65;;;;;;;2.79;75.56;98404.16;4980870;28;20061;-89
2022/03/26 01:54:04;;;;;;;31.05;15.13;;;;;;;2.91;75.03;98427.72;4990450;28;20057;-87
2022/03/26 01:56:30;;;;;;;34.25;15.73;;;;;;;2.80;75.80;98425.25;4984908;28;20057;-88
2022/03/26 01:58:56;;;;;;;34.30;15.70;;;;;;;2.85;75.16;98422.53;4985248;28;20026;-88
2022/03/26 02:01:21;;;;;;;37.83;17.02;;;;;;;2.76;75.77;98414.75;4979784;28;20030;-88
2022/03/26 02:03:47;;;;;;;36.15;16.35;;;;;;;2.78;76.69;98432.31;4980210;28;20145;-88
2022/03/26 02:06:12;;;;;;;38.35;16.38;;;;;;;2.64;77.43;98422.00;4981742;28;20402;-88
2022/03/26 02:08:38;;;;;;;38.67;17.70;;;;;;;2.72;77.88;98417.47;4988765;28;20399;-89
2022/03/26 02:11:04;;;;;;;42.60;15.65;;;;;;;2.87;76.39;98433.94;4996491;28;20037;-88
2022/03/26 02:13:49;;;;;;;33.30;15.20;;;;;;;2.76;77.12;98441.19;4980036;28;20033;-89
2022/03/26 02:16:14;;;;;;;31.95;15.13;;;;;;;2.60;78.10;98430.88;4996266;28;20105;-88
2022/03/26 02:18:40;;;;;;;42.67;18.75;;;;;;;2.57;77.70;98436.19;4990219;28;20102;-87
2022/03/26 02:21:06;;;;;;;39.30;15.80;;;;;;;2.44;78.96;98439.03;4980532;28;20030;-88
2022/03/26 02:23:31;;;;;;;35.47;16.25;;;;;;;2.28;79.26;98438.41;4979324;28;20029;-88
2022/03/26 02:25:57;;;;;;;40.30;18.20;;;;;;;2.31;80.03;98448.91;4968113;28;20069;-87
2022/03/26 02:28:22;;;;;;;54.88;18.48;;;;;;;2.32;80.01;98439.25;4995522;28;20100;-87
2022/03/26 02:30:48;;;;;;;47.30;16.15;;;;;;;2.18;80.45;98434.19;4976606;28;20054;-88
2022/03/26 02:33:13;;;;;;;54.20;18.05;;;;;;;2.13;82.11;98438.63;4992079;28;20109;-90
2022/03/26 02:35:39;;;;;;;47.80;19.23;;;;;;;2.14;82.41;98445.66;4975558;28;20030;-88
2022/03/26 02:38:05;;;;;;;45.33;18.55;;;;;;;2.09;82.35;98442.22;4976140;28;20034;-88
2022/03/26 02:40:30;;;;;;;48.40;18.38;;;;;;;2.06;82.91;98450.19;4992661;28;20041;-87
2022/03/26 02:42:56;;;;;;;52.58;19.98;;;;;;;2.07;82.41;98438.72;4976942;28;20195;-87
2022/03/26 02:45:21;;;;;;;40.58;19.40;;;;;;;2.05;82.80;98433.47;4960608;28;20070;-89
2022/03/26 02:47:48;;;;;;;44.33;19.58;;;;;;;2.22;83.03;98440.25;4976316;28;20217;-88
2022/03/26 02:50:14;;;;;;;38.22;17.75;;;;;;;2.25;82.88;98451.66;4976280;28;20097;-89
2022/03/26 02:52:40;;;;;;;46.25;18.25;;;;;;;2.21;82.54;98449.97;4960567;28;20038;-88
2022/03/26 02:55:08;;;;;;;40.63;18.23;;;;;;;2.06;82.84;98440.47;4992732;28;20031;-88
2022/03/26 02:57:34;;;;;;;45.42;16.67;;;;;;;1.98;83.19;98434.44;4976045;28;20402;-87
2022/03/26 02:59:59;;;;;;;39.72;16.40;;;;;;;1.99;83.82;98441.47;4991929;28;20041;-88
2022/03/26 03:02:25;;;;;;;39.65;16.75;;;;;;;2.13;83.64;98454.47;4991676;28;20038;-88
2022/03/26 03:04:50;;;;;;;45.30;15.38;;;;;;;2.03;83.52;98434.41;4992188;28;20044;-88
2022/03/26 03:07:16;;;;;;;41.20;18.23;;;;;;;2.07;83.88;98446.63;4975801;28;20054;-88
2022/03/26 03:09:41;;;;;;;38.88;17.50;;;;;;;2.09;84.01;98452.78;4969955;28;20418;-88
2022/03/26 03:12:08;;;;;;;38.47;18.67;;;;;;;2.06;84.35;98468.66;4960746;28;20093;-88
2022/03/26 03:14:35;;;;;;;43.90;20.23;;;;;;;1.88;85.47;98448.66;4976105;28;20069;-88
2022/03/26 03:17:00;;;;;;;56.08;21.92;;;;;;;1.92;85.60;98453.00;4960317;28;20038;-89
2022/03/26 03:19:26;;;;;;;47.08;19.83;;;;;;;1.91;85.58;98456.53;4976278;28;20529;-91
2022/03/26 03:21:51;;;;;;;45.03;16.20;;;;;;;1.74;85.97;98458.50;4993966;28;20490;-91
2022/03/26 03:24:17;;;;;;;35.00;16.27;;;;;;;1.69;87.22;98462.97;4979093;28;20120;-90
2022/03/26 03:26:43;;;;;;;39.33;16.38;;;;;;;1.78;87.26;98467.25;4978598;28;20050;-90
2022/03/26 03:29:09;;;;;;;42.45;16.00;;;;;;;1.64;86.39;98459.50;4979158;28;20046;-91
2022/03/26 03:31:37;;;;;;;36.10;16.40;;;;;;;1.64;86.93;98467.41;4994736;28;20038;-91
2022/03/26 03:34:03;;;;;;;39.63;18.00;;;;;;;1.60;88.04;98479.75;4979284;28;20042;-91
2022/03/26 03:36:29;;;;;;;42.08;18.77;;;;;;;1.68;88.34;98465.63;4978071;28;20053;-91
2022/03/26 03:38:54;;;;;;;61.22;23.65;;;;;;;1.60;87.85;98468.34;4977702;28;20093;-90
2022/03/26 03:41:20;;;;;;;48.03;22.25;;;;;;;1.53;88.00;98456.13;4978199;28;20461;-91
2022/03/26 03:43:45;;;;;;;55.95;19.30;;;;;;;1.58;89.11;98485.94;4994312;28;20042;-89
2022/03/26 03:46:12;;;;;;;46.53;17.73;;;;;;;1.52;88.77;98492.16;4979045;28;20383;-91
2022/03/26 03:52:00;;;;;;;53.42;17.75;;;;;;;1.31;88.65;98480.97;4996200;28;20140;-91
2022/03/26 03:54:26;;;;;;;43.00;18.45;;;;;;;1.33;89.22;98477.44;4978157;28;20045;-90
2022/03/26 03:56:52;;;;;;;32.95;16.90;;;;;;;1.33;87.96;98484.47;4977541;28;20069;-91
2022/03/26 03:59:18;;;;;;;40.45;17.75;;;;;;;1.29;87.93;98491.56;4994559;28;20065;-91
2022/03/26 04:01:44;;;;;;;44.92;18.70;;;;;;;1.27;88.58;98495.06;4979413;28;20104;-90
2022/03/26 04:04:09;;;;;;;51.83;20.50;;;;;;;1.29;88.27;98496.81;4982281;28;20034;-91
2022/03/26 04:06:35;;;;;;;42.80;18.35;;;;;;;1.26;88.16;98491.56;4998267;28;20061;-91
2022/03/26 04:09:01;;;;;;;45.78;19.70;;;;;;;1.24;87.67;98497.72;5013873;28;20058;-89
2022/03/26 04:11:26;;;;;;;44.25;18.00;;;;;;;1.20;88.37;98488.97;4997900;28;20043;-90
2022/03/26 04:13:53;;;;;;;38.10;20.08;;;;;;;1.16;88.08;98482.00;4982490;28;20552;-90
2022/03/26 04:16:20;;;;;;;71.28;28.17;;;;;;;1.14;88.76;98478.50;4981474;28;20042;-90
2022/03/26 04:18:45;;;;;;;60.17;20.95;;;;;;;1.29;88.90;98503.84;4999242;28;20521;-90
2022/03/26 04:21:11;;;;;;;40.45;18.40;;;;;;;1.15;88.65;98487.28;4982587;28;20046;-92
2022/03/26 04:23:37;;;;;;;43.85;15.15;;;;;;;0.94;88.71;98497.16;4982143;28;20464;-91
2022/03/26 04:26:02;;;;;;;33.05;15.07;;;;;;;0.96;89.33;98500.63;4965943;28;20046;-90
2022/03/26 04:28:31;;;;;;;42.63;16.58;;;;;;;1.01;88.80;98503.22;4965023;28;20038;-91
2022/03/26 04:30:56;;;;;;;37.83;17.55;;;;;;;0.86;88.79;98488.41;4983431;28;20565;-91
2022/03/26 04:33:22;;;;;;;37.80;16.67;;;;;;;0.87;88.73;98500.72;4984748;28;20179;-90
2022/03/26 04:35:48;;;;;;;51.05;16.42;;;;;;;0.90;89.48;98489.28;4983359;28;20512;-91
2022/03/26 04:38:13;;;;;;;43.10;15.52;;;;;;;0.89;88.85;98509.44;5000658;28;20536;-91
2022/03/26 04:40:39;;;;;;;38.13;16.50;;;;;;;0.95;89.86;98508.56;5000559;28;20111;-91
2022/03/26 04:43:21;;;;;;;40.88;16.35;;;;;;;1.12;89.45;98517.16;4985225;28;20126;-91
2022/03/26 04:45:46;;;;;;;42.67;16.83;;;;;;;1.06;88.81;98510.19;4975030;28;20144;-90
2022/03/26 04:48:13;;;;;;;41.97;16.20;;;;;;;1.08;88.88;98518.94;4984998;28;20042;-92
2022/03/26 04:50:39;;;;;;;42.13;16.40;;;;;;;1.09;89.55;98518.06;4984124;28;20052;-91
2022/03/26 04:53:05;;;;;;;40.78;15.30;;;;;;;1.15;89.72;98530.31;5001349;28;20065;-91
2022/03/26 04:55:31;;;;;;;36.35;15.48;;;;;;;1.18;88.90;98519.75;4991526;28;20038;-93
2022/03/26 04:57:56;;;;;;;42.40;16.02;;;;;;;1.33;88.49;98538.03;4999381;28;20478;-90
2022/03/26 05:00:22;;;;;;;31.85;16.25;;;;;;;1.62;86.07;98528.09;4998915;28;20041;-93
2022/03/26 05:02:48;;;;;;;38.17;15.13;;;;;;;1.82;84.45;98541.03;5000438;28;20046;-93
2022/03/26 05:05:15;;;;;;;41.60;16.75;;;;;;;1.74;84.44;98539.38;4967186;28;20038;-89
2022/03/26 05:07:47;;;;;;;55.17;16.35;;;;;;;2.00;83.12;98545.25;4977420;28;20034;-89
2022/03/26 05:10:21;;;;;;;;;;;;;;;2.44;81.76;98542.88;4973718;28;20071;-90
2022/03/26 05:12:48;;;;;;;33.63;14.75;;;;;;;2.87;78.30;98532.56;4999785;28;19914;-77
2022/03/26 05:15:15;;;;;;;41.55;15.57;;;;;;;3.45;75.73;98529.81;4994713;28;20042;-79
2022/03/26 05:17:41;;;;;;;48.17;19.65;;;;;;;3.80;72.50;98542.38;4979156;28;20042;-79
2022/03/26 05:20:08;;;;;;;60.22;20.52;;;;;;;3.89;71.54;98536.03;5013114;28;20045;-77
2022/03/26 05:22:41;;;;;;;52.80;23.92;;;;;;;4.27;70.52;98544.09;4964481;28;20045;-79
2022/03/26 05:25:11;;;;;;;47.33;21.98;;;;;;;4.87;68.04;98532.13;5007167;28;20512;-78
2022/03/26 05:27:48;;;;;;;43.25;18.30;;;;;;;5.60;64.80;98534.72;4979456;28;20038;-79
2022/03/26 05:30:14;;;;;;;45.80;20.88;;;;;;;6.51;61.06;98527.72;4990999;28;20421;-78
2022/03/26 05:32:40;;;;;;;50.78;21.67;;;;;;;7.51;56.46;98506.72;4979345;28;20042;-78
2022/03/26 05:35:13;;;;;;;47.35;20.77;;;;;;;8.58;53.48;98506.38;4995083;28;20037;-79
2022/03/26 05:37:42;;;;;;;51.72;22.30;;;;;;;9.35;50.48;98500.53;4979316;28;20117;-78
2022/03/26 05:40:09;;;;;;;45.15;21.60;;;;;;;9.83;48.39;98492.25;4991404;28;20394;-79
2022/03/26 05:42:36;;;;;;;64.25;23.67;;;;;;;10.44;47.05;98485.03;4987163;28;20038;-78
2022/03/26 05:45:09;;;;;;;54.35;22.75;;;;;;;10.76;45.92;98478.19;4978899;28;20122;-80
2022/03/26 05:47:35;;;;;;;43.88;22.67;;;;;;;11.28;44.94;98481.88;4978654;28;20124;-78
2022/03/26 05:50:11;;;;;;;49.63;22.80;;;;;;;11.33;44.33;98480.69;4980568;28;20117;-80
2022/03/26 05:52:43;;;;;;;49.05;22.35;;;;;;;12.41;42.70;98475.91;4984924;28;20112;-81
2022/03/26 05:55:09;;;;;;;46.25;23.88;;;;;;;13.25;40.75;98466.69;4978710;28;20061;-79
2022/03/26 05:57:34;;;;;;;55.67;22.55;;;;;;;13.65;39.61;98470.59;4971373;28;20038;-79
2022/03/26 06:00:00;;;;;;;39.40;19.70;;;;;;;13.24;40.62;98461.41;4993251;28;20091;-80
2022/03/26 06:02:27;;;;;;;50.40;22.08;;;;;;;13.26;39.61;98454.97;4992917;28;20033;-86
2022/03/26 06:04:53;;;;;;;50.25;21.23;;;;;;;13.22;39.75;98460.63;4999359;28;20037;-88
2022/03/26 06:07:18;;;;;;;34.95;19.30;;;;;;;13.40;39.09;98460.44;4983183;28;20196;-89
2022/03/26 06:09:44;;;;;;;38.90;19.90;;;;;;;12.67;40.40;98460.19;4986060;28;20038;-89
2022/03/26 06:12:10;;;;;;;41.95;19.30;;;;;;;12.52;41.63;98478.84;4997022;28;20048;-85
2022/03/26 06:14:35;;;;;;;44.13;20.27;;;;;;;12.82;40.75;98480.81;4981999;28;20073;-91
2022/03/26 06:17:04;;;;;;;42.97;17.20;;;;;;;13.01;39.89;98476.97;4986167;28;20092;-88
2022/03/26 06:19:43;;;;;;;41.33;18.77;;;;;;;13.73;38.47;98445.94;5003377;28;20485;-87
2022/03/26 06:22:16;;;;;;;67.30;18.83;;;;;;;14.22;37.14;98427.66;4973446;28;20042;-79
2022/03/26 06:24:43;;;;;;;44.28;20.40;;;;;;;14.29;37.54;98461.28;5007968;28;20123;-89
2022/03/26 06:27:08;;;;;;;55.80;19.35;;;;;;;14.47;37.11;98465.56;4980409;28;20425;-91
2022/03/26 06:29:36;;;;;;;41.33;17.10;;;;;;;13.99;37.61;98458.69;4980450;28;20133;-90
2022/03/26 06:32:02;;;;;;;43.20;15.38;;;;;;;14.65;36.21;98454.50;4981208;28;20099;-88
2022/03/26 06:34:28;;;;;;;32.40;16.23;;;;;;;14.38;36.86;98464.31;4981126;28;20129;-87
2022/03/26 06:36:54;;;;;;;40.45;16.02;;;;;;;14.54;36.57;98470.47;4981532;28;20062;-89
2022/03/26 06:39:20;;;;;;;31.63;15.07;;;;;;;13.80;37.16;98467.00;4982631;28;20083;-89
2022/03/26 06:41:45;;;;;;;36.70;16.58;;;;;;;14.75;36.60;98473.63;4997090;28;20037;-88
2022/03/26 06:44:12;;;;;;;54.38;22.60;;;;;;;15.65;35.63;98477.53;4981948;28;20038;-87
2022/03/26 06:49:23;;;;;;;56.78;26.42;;;;;;;15.89;34.81;98474.13;5001036;28;20174;-90
2022/03/26 06:51:49;;;;;;;50.38;23.55;;;;;;;16.25;34.18;98480.53;4983659;28;20034;-87
2022/03/26 06:54:15;;;;;;;41.78;20.75;;;;;;;17.61;32.62;98471.56;4981766;28;20512;-86
2022/03/26 06:56:41;;;;;;;34.42;19.83;;;;;;;16.95;32.92;98466.59;4980998;28;20033;-90
2022/03/26 06:59:06;;;;;;;36.38;17.50;;;;;;;16.93;33.17;98468.53;4980388;28;20045;-88
2022/03/26 07:01:32;;;;;;;33.30;17.67;;;;;;;16.83;33.05;98470.19;4980872;28;20038;-89
2022/03/26 07:03:58;;;;;;;28.67;16.60;;;;;;;17.10;32.31;98473.56;4980572;28;20084;-86
2022/03/26 07:06:24;;;;;;;39.28;17.58;;;;;;;17.31;31.91;98463.88;4980227;28;20537;-84
2022/03/26 07:08:49;;;;;;;30.58;16.80;;;;;;;16.03;33.59;98465.94;4979130;28;20103;-88
2022/03/26 07:11:16;;;;;;;37.05;16.42;;;;;;;15.62;34.87;98475.06;4996980;28;20030;-88
2022/03/26 07:13:41;;;;;;;28.08;16.20;;;;;;;17.05;32.71;98468.50;4984864;28;20045;-87
2022/03/26 07:16:07;;;;;;;27.63;14.30;;;;;;;18.59;30.82;98465.69;4996671;28;20034;-89
2022/03/26 07:18:34;;;;;;;40.25;14.90;;;;;;;18.83;30.07;98459.16;4997239;28;20433;-88
2022/03/26 07:21:00;;;;;;;32.10;15.85;;;;;;;17.94;31.12;98457.28;4997310;28;20048;-88
2022/03/26 07:23:27;;;;;;;34.90;15.90;;;;;;;17.34;32.00;98459.09;4989393;28;20041;-88
2022/03/26 07:25:52;;;;;;;34.58;15.35;;;;;;;18.92;30.22;98461.13;4996645;28;20042;-88
2022/03/26 07:28:18;;;;;;;30.58;17.13;;;;;;;19.56;29.71;98445.03;4980093;28;20033;-88
2022/03/26 07:30:44;;;;;;;38.42;16.75;;;;;;;20.15;28.63;98439.06;4979030;28;20054;-89
2022/03/26 07:33:09;;;;;;;41.30;18.88;;;;;;;20.25;28.34;98451.69;4979667;28;20460;-88
2022/03/26 07:35:35;;;;;;;35.72;19.52;;;;;;;19.85;28.58;98448.81;4980525;28;20416;-89
2022/03/26 07:38:01;;;;;;;41.92;20.83;;;;;;;20.22;28.75;98440.22;4983468;28;20037;-88
2022/03/26 07:40:29;;;;;;;46.33;22.98;;;;;;;20.51;28.06;98431.31;4989677;28;20046;-88
2022/03/26 07:42:55;;;;;;;42.40;22.15;;;;;;;20.75;27.33;98438.28;4996547;28;20030;-88
2022/03/26 07:45:20;;;;;;;42.83;20.92;;;;;;;19.33;28.79;98444.19;4983219;28;20096;-89
2022/03/26 07:47:46;;;;;;;36.15;19.73;;;;;;;19.21;29.13;98442.47;4983288;28;20037;-88
2022/03/26 07:50:11;;;;;;;49.83;22.83;;;;;;;20.52;27.50;98432.13;4982768;28;20041;-90
2022/03/26 07:52:38;;;;;;;37.85;19.83;;;;;;;20.82;27.44;98440.31;4982675;28;20042;-86
2022/03/26 07:55:05;;;;;;;38.10;20.38;;;;;;;21.15;27.74;98431.00;4999983;28;20034;-89
2022/03/26 07:57:55;;;;;;;35.00;20.10;;;;;;;21.77;26.78;98432.53;4983356;28;20124;-88
2022/03/26 08:00:21;;;;;;;36.60;19.98;;;;;;;22.06;25.34;98417.91;5015144;28;20488;-89
2022/03/26 08:02:47;;;;;;;34.75;19.88;;;;;;;21.98;26.11;98420.50;4999047;28;20096;-87
2022/03/26 08:05:12;;;;;;;44.33;20.67;;;;;;;22.05;25.51;98418.06;4975228;28;20033;-87
2022/03/26 08:07:38;;;;;;;40.15;19.05;;;;;;;20.88;27.06;98415.28;4999878;28;20037;-86
2022/03/26 08:10:04;;;;;;;48.10;20.05;;;;;;;21.78;26.16;98424.19;4985056;28;20463;-85
2022/03/26 08:12:30;;;;;;;34.45;19.17;;;;;;;21.77;25.59;98408.00;4985415;28;20037;-85
2022/03/26 08:14:55;;;;;;;35.88;18.33;;;;;;;21.65;25.39;98403.72;5000743;28;20037;-85
2022/03/26 08:17:22;;;;;;;40.47;21.13;;;;;;;21.41;26.16;98415.84;4989683;28;20034;-87
2022/03/26 08:19:49;;;;;;;34.83;20.17;;;;;;;22.16;25.28;98404.28;4999216;28;20029;-86
2022/03/26 08:22:14;;;;;;;56.65;20.45;;;;;;;22.29;25.28;98403.97;4982450;28;20038;-86
2022/03/26 08:24:40;;;;;;;29.15;15.63;;;;;;;22.97;23.72;98398.16;4982258;28;20097;-87
2022/03/26 08:27:05;;;;;;;40.13;14.10;;;;;;;22.25;24.65;98394.34;4981702;28;20488;-87
2022/03/26 08:29:31;;;;;;;25.92;14.60;;;;;;;22.33;23.41;98386.31;4966473;28;20058;-87
2022/03/26 08:31:56;;;;;;;17.80;11.52;;;;;;;22.95;24.07;98386.50;4997307;28;20041;-88
2022/03/26 08:34:22;;;;;;;21.40;11.07;;;;;;;23.20;22.43;98372.13;4981684;28;20061;-87
2022/03/26 08:36:48;;;;;;;29.10;13.50;;;;;;;23.28;23.23;98378.69;4996934;28;20065;-86
2022/03/26 08:39:13;;;;;;;24.77;13.02;;;;;;;24.03;22.04;98378.25;4996502;28;20108;-86
2022/03/26 08:41:39;;;;;;;27.52;9.98;;;;;;;24.22;21.19;98358.94;4982009;28;20045;-86
2022/03/26 08:44:05;;;;;;;18.13;9.32;;;;;;;24.93;20.95;98375.09;4989962;28;20088;-87
2022/03/26 08:46:31;;;;;;;22.95;9.60;;;;;;;25.33;20.25;98356.94;4986839;28;20033;-87
2022/03/26 08:48:58;;;;;;;18.63;9.57;;;;;;;24.84;20.61;98359.66;4996331;28;20041;-88
2022/03/26 08:51:23;;;;;;;17.35;9.48;;;;;;;23.75;20.69;98352.88;4981532;28;20521;-87
2022/03/26 08:53:49;;;;;;;13.98;9.07;;;;;;;24.76;20.29;98358.56;4979928;28;20030;-88
2022/03/26 08:56:15;;;;;;;19.77;9.18;;;;;;;25.41;19.68;98352.50;4996703;28;20034;-86
2022/03/26 08:58:40;;;;;;;22.50;9.52;;;;;;;26.21;18.99;98332.53;4997963;28;20033;-86
2022/03/26 09:01:07;;;;;;;22.58;9.65;;;;;;;26.25;18.90;98337.47;4994755;28;20033;-86
2022/03/26 09:03:37;;;;;;;17.42;9.80;;;;;;;26.68;18.56;98333.41;4980978;28;20132;-86
2022/03/26 09:06:04;;;;;;;13.90;8.38;;;;;;;25.02;18.77;98335.78;4981013;28;20451;-87
2022/03/26 09:08:29;;;;;;;16.63;8.48;;;;;;;25.27;18.42;98332.94;4997541;28;20049;-88
2022/03/26 09:10:57;;;;;;;20.83;8.85;;;;;;;25.51;18.47;98325.81;4991391;28;20117;-87
2022/03/26 09:13:23;;;;;;;17.08;9.02;;;;;;;24.69;18.97;98312.88;4982362;28;20044;-87
2022/03/26 09:15:52;;;;;;;16.85;9.32;;;;;;;25.38;17.67;98318.06;4984522;28;20037;-86
2022/03/26 09:18:18;;;;;;;13.38;8.93;;;;;;;24.21;18.84;98313.44;4978639;28;20031;-86
2022/03/26 09:20:43;;;;;;;18.83;8.73;;;;;;;23.80;19.06;98292.31;5012959;28;20033;-85
2022/03/26 09:23:09;;;;;;;17.23;9.35;;;;;;;25.52;17.75;98305.59;4986086;28;20096;-85
2022/03/26 09:25:37;;;;;;;21.02;10.38;;;;;;;25.18;18.82;98303.81;4997327;28;20076;-86
2022/03/26 09:28:03;;;;;;;15.88;8.90;;;;;;;24.95;18.23;98302.72;4980928;28;20065;-85
2022/03/26 09:30:31;;;;;;;16.67;9.13;;;;;;;25.49;18.11;98286.78;4980415;28;20524;-86
2022/03/26 09:32:57;;;;;;;13.65;9.20;;;;;;;24.91;18.04;98290.41;4980839;28;20034;-84
2022/03/26 09:35:23;;;;;;;20.45;11.43;;;;;;;25.61;19.20;98290.88;4980727;28;20442;-86
2022/03/26 09:37:49;;;;;;;17.50;9.05;;;;;;;26.35;17.37;98294.25;4975848;28;20026;-85
2022/03/26 09:40:14;;;;;;;21.73;9.65;;;;;;;25.90;17.37;98285.75;4980153;28;20037;-85
2022/03/26 09:42:40;;;;;;;16.90;9.45;;;;;;;27.01;16.64;98278.41;4980319;28;20150;-86
2022/03/26 09:45:08;;;;;;;24.10;9.43;;;;;;;27.93;16.65;98278.25;4980692;28;20509;-87
2022/03/26 09:47:35;;;;;;;19.95;9.55;;;;;;;28.04;16.28;98271.41;4980774;28;20042;-85
2022/03/26 09:50:21;;;;;;;24.63;10.30;;;;;;;27.29;16.64;98283.19;4979790;28;20413;-87
2022/03/26 09:52:46;;;;;;;19.30;10.77;;;;;;;27.66;16.70;98268.66;4981159;28;20034;-86
2022/03/26 09:55:12;;;;;;;15.32;9.30;;;;;;;26.90;16.77;98276.91;5002720;28;20490;-85
2022/03/26 09:57:39;;;;;;;14.07;9.43;;;;;;;26.46;17.49;98262.81;4980154;28;20460;-86
2022/03/26 10:00:05;;;;;;;19.30;9.15;;;;;;;27.92;16.35;98265.53;4990780;28;20029;-86
2022/03/26 10:02:31;;;;;;;15.45;9.57;;;;;;;28.35;16.06;98270.25;4979455;28;20510;-86
2022/03/26 10:04:56;;;;;;;20.17;10.45;;;;;;;27.78;16.34;98260.84;4979795;28;20061;-85
2022/03/26 10:07:29;;;;;;;16.42;8.95;;;;;;;27.12;16.90;98262.34;4995752;28;20409;-86
2022/03/26 10:09:55;;;;;;;13.02;8.20;;;;;;;27.72;16.17;98251.44;4979033;28;20046;-86
2022/03/26 10:12:22;;;;;;;15.80;9.25;;;;;;;27.09;16.91;98259.97;4981072;28;20433;-85
2022/03/26 10:14:52;;;;;;;31.90;8.95;;;;;;;28.41;15.87;98252.13;5012427;28;20038;-86
2022/03/26 10:17:29;;;;;;;20.90;9.02;;;;;;;28.82;15.77;98261.63;4990887;28;20030;-87
2022/03/26 10:20:05;;;;;;;12.43;7.97;;;;;;;29.53;15.13;98249.72;4974240;28;20054;-87
2022/03/26 10:22:32;;;;;;;16.38;9.65;;;;;;;29.59;14.87;98248.94;4992203;28;20073;-86
2022/03/26 10:25:18;;;;;;;14.68;9.48;;;;;;;28.93;15.37;98228.06;4995702;28;20092;-86
2022/03/26 10:27:51;;;;;;;13.40;8.88;;;;;;;29.86;15.17;98227.13;4989966;28;20076;-85
2022/03/26 10:33:21;;;;;;;16.98;9.70;;;;;;;29.31;15.27;98228.72;4933960;28;20110;-86
2022/03/26 10:35:54;;;;;;;18.83;9.00;;;;;;;28.57;15.75;98226.28;4997469;28;20038;-86
2022/03/26 10:38:39;;;;;;;18.30;9.00;;;;;;;29.34;15.74;98217.31;4995392;28;20030;-86
2022/03/26 10:59:27;;;;;;;16.42;9.68;;;;;;;27.82;16.39;98194.25;5162569;27;21223;-86
2022/03/26 11:01:53;;;;;;;18.70;9.73;;;;;;;27.63;16.64;98207.69;5150125;27;20057;-86
2022/03/26 11:04:19;;;;;;;13.82;9.82;;;;;;;25.84;17.20;98209.66;5149567;27;20046;-86
2022/03/26 11:06:44;;;;;;;13.73;9.50;;;;;;;26.15;17.44;98205.13;5137179;27;20082;-86
2022/03/26 11:09:10;;;;;;;14.38;8.90;;;;;;;25.22;17.74;98184.69;5140928;27;20109;-87
2022/03/26 11:11:36;;;;;;;18.70;9.38;;;;;;;26.69;17.25;98191.53;5148282;27;20058;-86
2022/03/26 11:14:07;;;;;;;13.80;8.82;;;;;;;26.96;16.67;98193.78;5137024;27;20509;-86
2022/03/26 11:16:39;;;;;;;17.23;8.75;;;;;;;27.63;16.60;98193.94;5144521;27;20030;-86
2022/03/26 11:19:26;;;;;;;28.85;17.80;;;;;;;27.81;16.56;98200.81;5161486;27;20408;-84
2022/03/26 11:22:20;;;;;;;27.45;10.75;;;;;;;27.62;16.59;98192.25;5156776;27;20031;-84
2022/03/26 11:25:07;;;;;;;13.23;9.23;;;;;;;26.13;17.27;98190.72;5164698;27;20026;-86
2022/03/26 11:27:38;;;;;;;90.43;48.00;;;;;;;26.43;17.15;98186.31;5157591;27;20030;-86
2022/03/26 11:30:18;;;;;;;13.38;8.32;;;;;;;27.93;16.15;98184.72;5160847;27;20121;-84
2022/03/26 11:32:45;;;;;;;14.82;9.60;;;;;;;29.17;15.34;98149.66;5139464;27;20483;-85
2022/03/26 11:35:16;;;;;;;12.45;9.18;;;;;;;29.27;15.26;98171.41;5139084;27;20034;-85
2022/03/26 11:37:52;;;;;;;21.27;10.73;;;;;;;29.42;15.08;98161.16;5143353;27;20019;-85
2022/03/26 11:40:39;;;;;;;16.27;8.82;;;;;;;30.11;15.04;98167.66;5165934;27;20106;-86
2022/03/26 11:43:05;;;;;;;13.15;9.30;;;;;;;29.81;14.92;98166.16;5153414;27;20038;-85
2022/03/26 11:51:20;;;;;;;11.43;7.90;;;;;;;27.05;15.94;98131.38;5167860;27;20507;-85
2022/03/26 11:53:49;;;;;;;14.93;8.45;;;;;;;27.25;16.10;98138.97;5131421;27;20038;-85
2022/03/26 11:56:28;;;;;;;15.68;9.02;;;;;;;27.36;16.26;98151.38;5146088;27;20477;-85
2022/03/26 11:59:03;;;;;;;13.95;8.35;;;;;;;26.86;16.65;98143.72;5149560;27;20043;-85